Time;durP1;ratioP1;P1;durP2;ratioP2;P2;SDS_P1;SDS_P2;PMS_P1;PMS_P2;Temp;Humidity;BMP_temperature;BMP_pressure;BME280_temperature;BME280_humidity;BME280_pressure;Samples;Min_cycle;Max_cycle;Signal;HPM_P1;HPM_P2
2021/12/20 03:45:33;;;;;;;4.90;2.50;;;5.30;97.80;;;;;;5843496;23;20820;31
2021/12/20 03:48:00;;;;;;;4.45;2.00;;;5.40;97.70;;;;;;4796729;29;20043;-82
2021/12/20 03:50:27;;;;;;;5.03;2.40;;;5.30;97.60;;;;;;4798225;30;20039;-81
2021/12/20 03:52:53;;;;;;;3.72;1.60;;;5.30;97.70;;;;;;4780465;30;20036;-82
2021/12/20 03:55:19;;;;;;;6.80;2.05;;;5.40;97.60;;;;;;4765902;30;20055;-81
2021/12/20 03:57:45;;;;;;;7.32;1.95;;;5.50;97.50;;;;;;4811036;29;20230;-81
2021/12/20 04:00:13;;;;;;;4.38;1.60;;;5.50;97.30;;;;;;4798749;29;20040;-82
2021/12/20 04:02:41;;;;;;;3.65;1.90;;;5.50;97.20;;;;;;4799685;29;20058;-80
2021/12/20 04:05:07;;;;;;;4.35;2.30;;;5.50;97.30;;;;;;4784002;30;20110;-80
2021/12/20 04:07:33;;;;;;;2.90;1.63;;;5.50;97.40;;;;;;4783238;30;20046;-80
2021/12/20 04:09:59;;;;;;;4.38;2.47;;;5.50;97.40;;;;;;4783581;29;20359;-80
2021/12/20 04:12:24;;;;;;;4.15;1.63;;;5.50;97.30;;;;;;4768806;30;20038;-80
2021/12/20 04:14:50;;;;;;;2.70;1.95;;;5.50;97.20;;;;;;4783338;30;20040;-80
2021/12/20 04:17:16;;;;;;;5.53;2.25;;;5.40;97.30;;;;;;4791365;30;20102;-80
2021/12/20 04:19:42;;;;;;;4.82;1.88;;;5.50;97.40;;;;;;4796063;30;20063;-80
2021/12/20 04:22:08;;;;;;;3.40;1.88;;;5.40;97.70;;;;;;4788085;29;20028;-80
2021/12/20 04:24:34;;;;;;;5.65;2.20;;;5.50;97.80;;;;;;4794915;29;20024;-80
2021/12/20 04:27:00;;;;;;;3.72;1.60;;;5.50;98.00;;;;;;4809927;29;20067;-80
2021/12/20 04:29:28;;;;;;;3.80;1.85;;;5.40;98.00;;;;;;4780220;29;20064;-80
2021/12/20 04:31:54;;;;;;;8.63;2.20;;;5.50;97.90;;;;;;4809765;29;20098;-80
2021/12/20 04:34:21;;;;;;;5.25;1.90;;;5.50;97.80;;;;;;4809663;29;20044;-80
2021/12/20 04:36:47;;;;;;;;;;;5.50;97.70;;;;;;4788186;29;20047;-80
2021/12/20 04:39:17;;;;;;;3.43;1.53;;;5.40;97.70;;;;;;4780186;29;19920;-81
2021/12/20 04:41:43;;;;;;;6.80;1.80;;;5.40;97.80;;;;;;4794890;30;20035;-80
2021/12/20 04:44:09;;;;;;;6.82;2.67;;;5.40;97.80;;;;;;4797907;29;20043;-80
2021/12/20 04:46:34;;;;;;;11.52;1.58;;;5.40;97.70;;;;;;4771838;30;20067;-80
2021/12/20 04:49:00;;;;;;;4.35;1.98;;;5.30;97.70;;;;;;4779518;30;20451;-80
2021/12/20 04:51:26;;;;;;;8.52;1.80;;;5.30;97.80;;;;;;4735539;30;20036;-80
2021/12/20 04:53:52;;;;;;;13.05;1.52;;;5.30;97.90;;;;;;4779538;30;20114;-80
2021/12/20 04:56:17;;;;;;;2.75;1.55;;;5.30;97.90;;;;;;4766121;30;20067;-80
2021/12/20 04:58:43;;;;;;;5.80;2.20;;;5.20;98.00;;;;;;4766944;30;20043;-80
2021/12/20 05:01:09;;;;;;;7.70;2.00;;;5.20;98.10;;;;;;4735396;30;20115;-80
2021/12/20 05:03:35;;;;;;;3.95;2.05;;;5.20;98.40;;;;;;4764786;30;20035;-79
2021/12/20 05:06:01;;;;;;;11.02;2.47;;;5.20;98.50;;;;;;4764796;30;20036;-80
2021/12/20 05:08:33;;;;;;;3.83;2.20;;;5.20;98.50;;;;;;4778950;30;20036;-80
2021/12/20 05:11:00;;;;;;;7.95;3.42;;;5.10;98.70;;;;;;4779317;30;20117;-80
2021/12/20 05:13:26;;;;;;;7.22;3.15;;;5.10;98.80;;;;;;4779325;30;20031;-80
2021/12/20 05:15:52;;;;;;;6.05;2.90;;;5.10;98.70;;;;;;4779497;30;20058;-80
2021/12/20 05:18:18;;;;;;;5.07;3.10;;;5.00;98.80;;;;;;4764187;30;20043;-80
2021/12/20 05:20:43;;;;;;;6.40;2.88;;;5.00;98.90;;;;;;4749714;30;20077;-80
2021/12/20 05:23:09;;;;;;;5.35;2.75;;;5.00;98.90;;;;;;4764318;30;20077;-80
2021/12/20 05:25:36;;;;;;;5.93;2.75;;;4.90;99.00;;;;;;4763845;30;20054;-79
2021/12/20 05:28:03;;;;;;;5.15;2.83;;;4.90;99.10;;;;;;4778576;30;20081;-79
2021/12/20 05:30:28;;;;;;;4.18;2.83;;;4.90;99.10;;;;;;4764340;30;20107;-79
2021/12/20 05:32:55;;;;;;;4.15;2.97;;;4.90;99.20;;;;;;4749314;30;20081;-79
2021/12/20 05:35:21;;;;;;;4.93;2.73;;;4.80;99.20;;;;;;4746596;30;20044;-80
2021/12/20 05:37:48;;;;;;;4.13;2.40;;;4.80;99.00;;;;;;4778880;30;20276;-80
2021/12/20 05:40:15;;;;;;;7.65;3.13;;;4.80;98.90;;;;;;4763940;30;20054;-80
2021/12/20 05:42:41;;;;;;;7.32;2.72;;;4.80;98.80;;;;;;4778690;30;20040;-80
2021/12/20 05:45:08;;;;;;;6.88;2.22;;;4.70;98.50;;;;;;4778887;30;20373;-80
2021/12/20 05:47:34;;;;;;;;;;;4.70;98.40;;;;;;4764303;30;20062;-80
2021/12/20 05:50:00;;;;;;;5.67;2.47;;;4.70;98.30;;;;;;4764365;30;20198;-80
2021/12/20 05:52:26;;;;;;;4.25;2.30;;;4.70;98.20;;;;;;4778727;30;20113;-80
2021/12/20 05:54:52;;;;;;;10.15;3.08;;;4.70;98.40;;;;;;4749222;30;20051;-80
2021/12/20 05:57:18;;;;;;;9.05;2.92;;;4.70;98.00;;;;;;4763969;30;20035;-81
2021/12/20 05:59:44;;;;;;;3.47;2.03;;;4.70;98.00;;;;;;4764017;30;20035;-81
2021/12/20 06:02:10;;;;;;;5.25;2.58;;;4.70;97.90;;;;;;4749092;30;20069;-81
2021/12/20 06:04:35;;;;;;;7.95;2.28;;;4.60;97.90;;;;;;4764029;30;20036;-81
2021/12/20 06:07:02;;;;;;;3.88;2.10;;;4.60;97.80;;;;;;4763786;30;20035;-81
2021/12/20 06:09:28;;;;;;;6.30;2.35;;;4.60;97.60;;;;;;4749239;30;20050;-81
2021/12/20 06:11:59;;;;;;;8.40;1.90;;;4.60;97.10;;;;;;4778614;30;20098;-81
2021/12/20 06:14:26;;;;;;;7.03;1.75;;;4.60;96.60;;;;;;4778780;30;20128;-81
2021/12/20 06:16:52;;;;;;;4.82;1.80;;;4.50;96.00;;;;;;4748035;30;20036;-81
2021/12/20 06:19:17;;;;;;;5.95;1.70;;;4.60;95.30;;;;;;4763633;30;20062;-81
2021/12/20 06:21:43;;;;;;;5.57;1.83;;;4.60;94.70;;;;;;4778410;30;20299;-81
2021/12/20 06:24:09;;;;;;;5.28;1.63;;;4.50;94.80;;;;;;4747352;30;20058;-81
2021/12/20 06:26:35;;;;;;;8.93;1.83;;;4.60;95.00;;;;;;4778387;30;20035;-81
2021/12/20 06:29:00;;;;;;;4.70;1.67;;;4.50;95.30;;;;;;4778238;30;20369;-81
2021/12/20 06:31:26;;;;;;;7.18;2.20;;;4.50;95.60;;;;;;4763596;30;20032;-81
2021/12/20 06:33:52;;;;;;;8.13;2.67;;;4.50;96.10;;;;;;4763574;30;20114;-81
2021/12/20 06:36:19;;;;;;;7.30;2.08;;;4.50;96.40;;;;;;4763358;30;20227;-81
2021/12/20 06:38:46;;;;;;;9.13;2.28;;;4.50;96.80;;;;;;4766417;30;20043;-81
2021/12/20 06:41:12;;;;;;;7.55;2.25;;;4.50;96.50;;;;;;4766891;30;20043;-81
2021/12/20 06:43:38;;;;;;;7.18;1.92;;;4.50;96.80;;;;;;4782792;30;20323;-81
2021/12/20 06:46:04;;;;;;;8.05;2.05;;;4.40;96.10;;;;;;4750462;30;20048;-81
2021/12/20 06:48:30;;;;;;;8.02;1.90;;;4.40;95.70;;;;;;4766154;30;20050;-81
2021/12/20 06:50:56;;;;;;;11.25;2.50;;;4.40;95.40;;;;;;4766080;30;20035;-81
2021/12/20 06:53:21;;;;;;;9.77;2.17;;;4.40;95.50;;;;;;4766141;30;20039;-81
2021/12/20 06:55:47;;;;;;;11.60;2.20;;;4.40;95.30;;;;;;4765406;30;20339;-81
2021/12/20 06:58:13;;;;;;;10.65;2.58;;;4.40;95.30;;;;;;4750930;30;20342;-81
2021/12/20 07:00:39;;;;;;;16.25;2.28;;;4.40;95.50;;;;;;4763478;30;20107;-81
2021/12/20 07:03:05;;;;;;;9.43;3.13;;;4.40;95.50;;;;;;4760560;30;20216;-81
2021/12/20 07:05:31;;;;;;;7.47;2.33;;;4.50;95.70;;;;;;4777352;30;20088;-81
2021/12/20 07:07:56;;;;;;;7.68;2.28;;;4.50;95.60;;;;;;4750796;30;20039;-81
2021/12/20 07:10:22;;;;;;;6.38;1.70;;;4.50;95.30;;;;;;4779989;30;20028;-81
2021/12/20 07:12:51;;;;;;;9.43;2.03;;;4.50;95.10;;;;;;4750163;30;20035;-81
2021/12/20 07:15:17;;;;;;;9.65;2.28;;;4.50;94.90;;;;;;4764462;30;20035;-81
2021/12/20 07:17:43;;;;;;;6.67;2.13;;;4.50;94.70;;;;;;4759030;30;20020;-81
2021/12/20 07:20:11;;;;;;;4.35;1.73;;;4.50;94.70;;;;;;4771425;30;20613;-81
2021/12/20 07:22:37;;;;;;;8.38;2.20;;;4.50;94.70;;;;;;4764985;30;20063;-81
2021/12/20 07:25:04;;;;;;;7.32;1.95;;;4.50;94.80;;;;;;4758528;30;20028;-81
2021/12/20 07:27:30;;;;;;;8.75;2.35;;;4.60;95.00;;;;;;4749920;30;20047;-81
2021/12/20 07:29:57;;;;;;;15.20;3.07;;;4.60;95.50;;;;;;4749408;30;20044;-81
2021/12/20 07:32:23;;;;;;;;;;;4.60;95.50;;;;;;4752650;30;20032;-81
2021/12/20 07:34:49;;;;;;;10.37;1.87;;;4.60;95.50;;;;;;4776358;30;19936;-81
2021/12/20 07:37:14;;;;;;;6.78;1.90;;;4.60;95.60;;;;;;4749493;30;20034;-81
2021/12/20 07:39:40;;;;;;;10.13;3.33;;;4.70;95.50;;;;;;4743851;30;20049;-81
2021/12/20 07:42:07;;;;;;;10.10;2.58;;;4.70;95.50;;;;;;4764254;30;20044;-81
2021/12/20 07:44:33;;;;;;;10.90;2.95;;;4.70;95.10;;;;;;4765007;30;20460;-81
2021/12/20 07:46:58;;;;;;;6.50;2.13;;;4.70;94.90;;;;;;4750023;30;20139;-81
2021/12/20 07:49:24;;;;;;;12.05;2.72;;;4.80;94.70;;;;;;4763544;30;20078;-81
2021/12/20 07:51:52;;;;;;;9.27;2.30;;;4.80;94.40;;;;;;4751818;30;20264;-81
2021/12/20 07:54:18;;;;;;;8.63;2.50;;;4.80;94.20;;;;;;4764437;30;20040;-81
2021/12/20 07:56:44;;;;;;;3.97;2.20;;;4.90;94.00;;;;;;4761716;30;20047;-81
2021/12/20 07:59:10;;;;;;;10.48;3.08;;;4.80;93.90;;;;;;4768305;30;20040;-81
2021/12/20 08:01:36;;;;;;;8.90;2.28;;;4.90;93.90;;;;;;4735516;30;20027;-81
2021/12/20 08:04:03;;;;;;;7.82;2.42;;;4.90;93.40;;;;;;4763655;30;20115;-81
2021/12/20 08:06:29;;;;;;;10.32;3.00;;;5.00;93.50;;;;;;4780698;30;20051;-81
2021/12/20 08:08:55;;;;;;;6.97;2.35;;;5.00;93.00;;;;;;4773397;30;20239;-81
2021/12/20 08:11:21;;;;;;;7.70;2.45;;;5.10;93.40;;;;;;4743322;30;20043;-81
2021/12/20 08:13:47;;;;;;;14.02;3.10;;;5.10;92.80;;;;;;4742357;30;20027;-81
2021/12/20 08:16:14;;;;;;;13.05;3.25;;;5.20;92.80;;;;;;4758963;30;20035;-80
2021/12/20 08:18:44;;;;;;;9.38;2.40;;;5.20;91.90;;;;;;4775460;30;20035;-79
2021/12/20 08:21:10;;;;;;;11.07;3.10;;;5.30;91.70;;;;;;4768755;30;20042;-81
2021/12/20 08:23:37;;;;;;;9.77;2.42;;;5.30;91.30;;;;;;4776176;30;20047;-80
2021/12/20 08:26:04;;;;;;;;;;;5.30;90.30;;;;;;4771083;30;20081;-80
2021/12/20 08:28:30;;;;;;;10.60;2.60;;;5.30;88.10;;;;;;4774168;30;19921;-80
2021/12/20 08:30:57;;;;;;;8.32;2.58;;;5.20;88.50;;;;;;4756505;30;20063;-81
2021/12/20 08:33:23;;;;;;;11.00;1.93;;;5.20;88.40;;;;;;4761281;30;20043;-81
2021/12/20 08:35:49;;;;;;;10.07;2.45;;;5.30;88.70;;;;;;4763112;30;20251;-81
2021/12/20 08:38:17;;;;;;;15.40;2.60;;;5.30;88.70;;;;;;4742113;30;20151;-81
2021/12/20 08:40:43;;;;;;;6.28;2.20;;;5.40;88.20;;;;;;4760406;30;20036;-81
2021/12/20 08:43:09;;;;;;;13.07;2.63;;;5.40;88.10;;;;;;4744208;30;20040;-81
2021/12/20 08:45:35;;;;;;;11.35;2.50;;;5.50;87.90;;;;;;4777778;30;20382;-80
2021/12/20 08:48:01;;;;;;;9.88;2.42;;;5.50;87.20;;;;;;4746610;30;20103;-81
2021/12/20 08:50:27;;;;;;;8.45;2.03;;;5.40;85.80;;;;;;4792788;29;20035;-81
2021/12/20 08:52:54;;;;;;;8.18;2.30;;;5.40;85.30;;;;;;4748415;30;20106;-81
2021/12/20 08:55:21;;;;;;;5.88;1.85;;;5.40;84.50;;;;;;4748550;30;20338;-81
2021/12/20 08:57:46;;;;;;;7.43;2.55;;;5.30;84.60;;;;;;4748436;30;20126;-81
2021/12/20 09:00:24;;;;;;;13.60;2.35;;;5.30;83.80;;;;;;4762780;30;20047;-81
2021/12/20 09:02:50;;;;;;;7.30;2.42;;;5.40;85.30;;;;;;4777225;30;20040;-81
2021/12/20 09:05:17;;;;;;;10.48;3.03;;;5.40;83.50;;;;;;4749498;30;20066;-81
2021/12/20 09:07:42;;;;;;;10.38;2.30;;;5.40;84.50;;;;;;4763982;30;20243;-81
2021/12/20 09:10:11;;;;;;;8.32;2.20;;;5.30;82.70;;;;;;4778439;30;20047;-81
2021/12/20 09:12:37;;;;;;;12.77;2.08;;;5.20;83.40;;;;;;4763729;30;20044;-81
2021/12/20 09:15:04;;;;;;;7.72;3.03;;;5.10;83.40;;;;;;4778672;30;20044;-81
2021/12/20 09:17:30;;;;;;;8.65;2.92;;;5.10;84.20;;;;;;4763417;30;20047;-81
2021/12/20 09:19:56;;;;;;;12.90;3.67;;;5.20;84.60;;;;;;4748885;30;20051;-81
2021/12/20 09:22:27;;;;;;;13.52;3.00;;;5.20;84.20;;;;;;4763628;30;20049;-81
2021/12/20 09:24:54;;;;;;;9.18;3.13;;;5.20;83.60;;;;;;4764539;30;20046;-81
2021/12/20 09:27:19;;;;;;;9.10;2.10;;;5.30;83.70;;;;;;4762848;30;20035;-81
2021/12/20 09:29:45;;;;;;;4.55;1.88;;;5.40;81.50;;;;;;4757153;30;20063;-81
2021/12/20 09:32:11;;;;;;;13.63;2.20;;;5.40;82.40;;;;;;4748454;30;20032;-81
2021/12/20 09:34:37;;;;;;;11.27;2.05;;;5.40;81.20;;;;;;4747710;30;20276;-79
2021/12/20 09:37:06;;;;;;;14.00;2.13;;;5.50;81.10;;;;;;4777749;29;20107;-81
2021/12/20 09:39:34;;;;;;;4.93;2.15;;;5.50;80.30;;;;;;4762806;30;20035;-83
2021/12/20 09:42:00;;;;;;;8.45;2.13;;;5.50;80.70;;;;;;4761089;30;20035;-81
2021/12/20 09:44:26;;;;;;;7.13;2.42;;;5.50;79.90;;;;;;4762930;30;20082;-81
2021/12/20 09:46:56;;;;;;;6.73;1.53;;;5.60;79.00;;;;;;4777626;30;20070;-81
2021/12/20 09:49:21;;;;;;;8.15;2.13;;;5.60;77.00;;;;;;4762507;30;20297;-81
2021/12/20 09:51:48;;;;;;;9.32;2.58;;;5.60;77.20;;;;;;4774658;30;20028;-81
2021/12/20 09:54:14;;;;;;;8.52;1.60;;;5.70;77.80;;;;;;4757776;30;20677;-80
2021/12/20 09:56:41;;;;;;;9.35;1.77;;;5.80;75.70;;;;;;4747827;30;20054;-80
2021/12/20 09:59:13;;;;;;;7.20;1.70;;;5.70;76.30;;;;;;4766421;30;20317;-80
2021/12/20 10:01:39;;;;;;;5.22;1.67;;;5.60;76.40;;;;;;4759081;30;20239;-80
2021/12/20 10:04:06;;;;;;;6.88;2.15;;;5.60;76.90;;;;;;4777683;30;20331;-81
2021/12/20 10:06:33;;;;;;;5.15;1.70;;;5.60;77.20;;;;;;4777711;30;20044;-80
2021/12/20 10:09:09;;;;;;;;;;;5.60;76.50;;;;;;4763737;30;20208;-80
2021/12/20 10:11:37;;;;;;;8.50;1.92;;;5.60;77.00;;;;;;4777612;30;19981;-80
2021/12/20 10:14:16;;;;;;;7.93;1.90;;;5.60;77.00;;;;;;4762759;30;20046;-81
2021/12/20 10:16:43;;;;;;;7.68;1.70;;;5.70;77.50;;;;;;4774330;30;20066;-81
2021/12/20 10:19:28;;;;;;;;;;;5.70;77.90;;;;;;4762960;30;20059;-80
2021/12/20 10:21:56;;;;;;;6.95;2.17;;;5.80;77.30;;;;;;4762678;30;19910;-80
2021/12/20 10:24:36;;;;;;;8.40;1.73;;;5.80;76.80;;;;;;4762649;30;20055;-80
2021/12/20 10:27:03;;;;;;;7.53;1.95;;;5.70;77.50;;;;;;4791312;30;20104;-80
2021/12/20 10:29:29;;;;;;;11.32;2.28;;;5.70;77.10;;;;;;4774770;30;20039;-80
2021/12/20 10:31:56;;;;;;;7.75;2.60;;;5.70;77.20;;;;;;4745314;30;20062;-80
2021/12/20 10:34:32;;;;;;;5.60;1.83;;;5.80;78.40;;;;;;4776998;29;20040;-80
2021/12/20 10:36:59;;;;;;;;;;;5.80;76.90;;;;;;4772550;30;20081;-80
2021/12/20 10:39:41;;;;;;;11.13;1.95;;;5.80;75.30;;;;;;4761450;30;19910;-80
2021/12/20 10:42:15;;;;;;;6.75;1.85;;;5.70;76.70;;;;;;4759383;30;20383;-80
2021/12/20 10:44:41;;;;;;;6.95;1.67;;;5.70;76.80;;;;;;4762865;30;20051;-80
2021/12/20 10:47:07;;;;;;;6.10;2.00;;;5.70;77.50;;;;;;4777218;30;20060;-80
2021/12/20 10:49:33;;;;;;;9.83;3.60;;;5.80;76.90;;;;;;4777548;30;20277;-80
2021/12/20 10:51:59;;;;;;;7.55;1.90;;;5.80;77.60;;;;;;4747917;30;20089;-80
2021/12/20 10:54:31;;;;;;;8.10;1.80;;;5.90;77.90;;;;;;4747128;30;20044;-81
2021/12/20 10:57:05;;;;;;;5.93;1.80;;;6.00;78.00;;;;;;4763252;30;20059;-81
2021/12/20 10:59:36;;;;;;;8.43;1.95;;;6.00;77.10;;;;;;4775494;30;20089;-80
2021/12/20 11:04:59;;;;;;;;;;;5.90;77.60;;;;;;4777682;30;20209;-80
2021/12/20 11:10:14;;;;;;;9.80;2.38;;;6.00;77.90;;;;;;4760733;30;20236;-81
2021/12/20 11:12:40;;;;;;;4.38;2.03;;;6.00;78.90;;;;;;4756035;30;20051;-81
2021/12/20 11:15:09;;;;;;;6.82;2.05;;;6.00;78.70;;;;;;4747519;30;20047;-81
2021/12/20 11:17:40;;;;;;;7.00;1.90;;;5.90;79.20;;;;;;4762766;30;20236;-81
2021/12/20 11:20:06;;;;;;;8.30;2.20;;;5.90;78.60;;;;;;4778602;30;20047;-81
2021/12/20 11:22:33;;;;;;;4.57;1.42;;;5.80;79.10;;;;;;4777046;30;20032;-81
2021/12/20 11:25:03;;;;;;;3.35;1.70;;;5.80;79.40;;;;;;4763255;30;20110;-81
2021/12/20 11:27:53;;;;;;;9.45;2.35;;;5.80;79.30;;;;;;4763800;30;20090;-81
2021/12/20 11:30:28;;;;;;;10.18;2.72;;;5.80;79.20;;;;;;4792824;29;20113;-81
2021/12/20 11:32:55;;;;;;;12.65;3.10;;;5.90;79.20;;;;;;4760127;30;20032;-82
2021/12/20 11:35:23;;;;;;;7.73;2.03;;;5.90;76.70;;;;;;4779636;30;20043;-81
2021/12/20 11:37:50;;;;;;;4.22;1.70;;;5.80;75.60;;;;;;4780113;30;20315;-80
2021/12/20 11:40:18;;;;;;;4.97;2.60;;;5.90;76.00;;;;;;4780370;30;20039;-80
2021/12/20 11:42:44;;;;;;;4.90;1.80;;;5.80;75.80;;;;;;4765034;30;20043;-81
2021/12/20 11:45:13;;;;;;;4.55;1.40;;;5.80;76.60;;;;;;4779730;30;20043;-81
2021/12/20 11:48:05;;;;;;;6.00;2.10;;;5.80;77.00;;;;;;4764006;30;20055;-80
2021/12/20 11:50:41;;;;;;;5.68;1.75;;;5.80;74.70;;;;;;4765435;30;20070;-78
2021/12/20 11:53:12;;;;;;;7.07;1.48;;;5.70;75.50;;;;;;4762845;30;20060;-81
2021/12/20 11:55:45;;;;;;;5.15;1.42;;;5.80;75.60;;;;;;4765089;30;20287;-80
2021/12/20 11:58:20;;;;;;;7.85;1.83;;;5.70;75.30;;;;;;4776067;30;20145;-81
2021/12/20 12:00:54;;;;;;;5.43;1.50;;;5.80;76.10;;;;;;4778903;30;20034;-81
2021/12/20 12:03:22;;;;;;;3.63;1.13;;;5.80;75.40;;;;;;4764489;30;20032;-81
2021/12/20 12:05:52;;;;;;;3.28;1.58;;;5.70;75.30;;;;;;4764964;30;20379;-81
2021/12/20 12:08:37;;;;;;;5.65;2.05;;;5.80;76.10;;;;;;4778719;29;20027;-81
2021/12/20 12:11:09;;;;;;;5.43;1.77;;;5.80;76.30;;;;;;4794805;29;20020;-81
2021/12/20 12:13:51;;;;;;;12.85;2.28;;;5.70;75.80;;;;;;4765010;30;20031;-81
2021/12/20 12:16:32;;;;;;;8.60;2.03;;;5.80;76.90;;;;;;4764892;30;20035;-81
2021/12/20 12:19:02;;;;;;;5.65;2.25;;;5.80;75.90;;;;;;4779487;30;20059;-80
2021/12/20 12:21:34;;;;;;;4.68;1.48;;;5.80;76.20;;;;;;4766084;30;20070;-80
2021/12/20 12:24:01;;;;;;;6.80;2.22;;;5.80;76.60;;;;;;4780309;30;20051;-79
2021/12/20 12:26:34;;;;;;;;;;;5.90;76.10;;;;;;4778766;30;20032;-80
2021/12/20 12:29:02;;;;;;;6.40;1.80;;;5.80;76.60;;;;;;4764512;30;19914;-81
2021/12/20 12:31:58;;;;;;;6.72;2.25;;;5.80;75.90;;;;;;4760676;30;20063;-81
2021/12/20 12:34:36;;;;;;;;;;;5.80;76.00;;;;;;4771555;30;20028;-81
2021/12/20 12:37:23;;;;;;;7.13;2.75;;;5.80;76.10;;;;;;4756127;30;19918;-83
2021/12/20 12:39:49;;;;;;;6.95;2.72;;;5.70;76.40;;;;;;4762023;30;20043;-82
2021/12/20 12:42:15;;;;;;;7.55;2.42;;;5.70;76.00;;;;;;4777101;30;20215;-82
2021/12/20 12:44:51;;;;;;;7.03;1.92;;;5.60;75.30;;;;;;4762543;30;20032;-83
2021/12/20 12:47:36;;;;;;;10.07;2.23;;;5.70;76.40;;;;;;4772359;30;20652;-82
2021/12/20 12:50:03;;;;;;;7.70;2.50;;;5.70;75.40;;;;;;4791604;30;20071;-83
2021/12/20 12:52:30;;;;;;;;;;;5.60;75.50;;;;;;4748973;30;20138;-82
2021/12/20 12:55:13;;;;;;;9.05;3.28;;;5.60;76.00;;;;;;4758498;30;19949;-83
2021/12/20 12:57:41;;;;;;;8.15;2.55;;;5.60;76.30;;;;;;4779280;29;20035;-82
2021/12/20 13:00:20;;;;;;;7.82;2.75;;;5.60;75.80;;;;;;4748062;30;20339;-82
2021/12/20 13:02:49;;;;;;;7.65;2.25;;;5.50;76.00;;;;;;4792799;30;20130;-82
2021/12/20 13:05:23;;;;;;;11.05;2.20;;;5.50;75.60;;;;;;4777001;30;20068;-83
2021/12/20 13:08:03;;;;;;;7.93;2.42;;;5.50;76.40;;;;;;4778156;30;20059;-83
2021/12/20 13:10:40;;;;;;;6.65;2.28;;;5.50;76.60;;;;;;4760978;30;20052;-82
2021/12/20 13:13:21;;;;;;;6.70;2.00;;;5.50;77.00;;;;;;4776654;30;20119;-83
2021/12/20 13:15:56;;;;;;;4.68;1.95;;;5.50;76.70;;;;;;4763496;30;20140;-83
2021/12/20 13:18:32;;;;;;;5.97;1.67;;;5.40;77.20;;;;;;4772332;30;20051;-83
2021/12/20 13:21:02;;;;;;;8.55;2.05;;;5.40;77.80;;;;;;4745112;30;20051;-83
2021/12/20 13:23:30;;;;;;;6.55;2.10;;;5.40;77.90;;;;;;4762778;30;20106;-83
2021/12/20 13:26:09;;;;;;;14.27;2.10;;;5.40;78.50;;;;;;4774870;30;20614;-83
2021/12/20 13:28:38;;;;;;;13.60;4.07;;;5.40;78.30;;;;;;4772965;30;20223;-83
2021/12/20 13:31:09;;;;;;;6.75;2.08;;;5.40;78.40;;;;;;4774796;30;20031;-83
2021/12/20 13:33:38;;;;;;;4.55;1.90;;;5.40;77.50;;;;;;4763489;30;20028;-83
2021/12/20 13:36:13;;;;;;;8.02;2.03;;;5.30;77.60;;;;;;4775233;30;20040;-83
2021/12/20 13:38:48;;;;;;;8.48;2.10;;;5.30;77.60;;;;;;4763405;30;20047;-83
2021/12/20 13:41:22;;;;;;;7.72;1.77;;;5.30;77.90;;;;;;4763174;30;20055;-82
2021/12/20 13:44:06;;;;;;;9.80;1.85;;;5.30;78.00;;;;;;4763397;30;20328;-82
2021/12/20 13:47:02;;;;;;;10.30;2.35;;;5.30;77.90;;;;;;4790507;30;20595;-82
2021/12/20 13:49:29;;;;;;;6.78;2.08;;;5.30;78.30;;;;;;4727130;30;20102;-81
2021/12/20 13:52:06;;;;;;;12.85;2.72;;;5.20;77.70;;;;;;4724404;30;20043;-83
2021/12/20 13:54:37;;;;;;;5.93;1.92;;;5.20;78.70;;;;;;4741207;30;20036;-83
2021/12/20 13:57:19;;;;;;;8.52;1.83;;;5.20;78.40;;;;;;4707691;30;20036;-82
2021/12/20 13:59:56;;;;;;;7.32;1.98;;;5.20;79.20;;;;;;4736467;30;20355;-83
2021/12/20 14:02:28;;;;;;;13.05;2.30;;;5.20;78.70;;;;;;4723508;30;20119;-83
2021/12/20 14:05:09;;;;;;;10.15;2.60;;;5.10;78.20;;;;;;4727408;30;20071;-83
2021/12/20 14:07:39;;;;;;;5.65;2.20;;;5.10;77.50;;;;;;4712576;30;20237;-82
2021/12/20 14:10:26;;;;;;;9.98;2.33;;;5.10;77.40;;;;;;4726659;30;20548;-83
2021/12/20 14:13:08;;;;;;;7.20;2.20;;;5.10;77.40;;;;;;4741089;30;20040;-82
2021/12/20 14:15:35;;;;;;;5.45;2.42;;;5.10;77.90;;;;;;4712094;30;20071;-83
2021/12/20 14:18:19;;;;;;;5.90;1.92;;;5.10;77.60;;;;;;4711848;30;20256;-83
2021/12/20 14:20:51;;;;;;;4.65;1.60;;;5.20;77.10;;;;;;4727012;30;20059;-83
2021/12/20 14:23:20;;;;;;;8.18;2.00;;;5.20;76.80;;;;;;4712339;30;20044;-83
2021/12/20 14:25:48;;;;;;;5.50;2.00;;;5.20;76.60;;;;;;4740216;30;20116;-83
2021/12/20 14:28:23;;;;;;;12.23;1.73;;;5.30;76.50;;;;;;4777656;30;20051;-82
2021/12/20 14:30:52;;;;;;;5.60;1.35;;;5.20;76.20;;;;;;4762996;30;20123;-83
2021/12/20 14:33:19;;;;;;;7.80;1.73;;;5.20;75.00;;;;;;4777454;30;20031;-82
2021/12/20 14:35:54;;;;;;;6.03;1.65;;;5.20;75.10;;;;;;4777615;30;20032;-83
2021/12/20 14:38:35;;;;;;;4.35;1.65;;;5.10;75.50;;;;;;4771712;30;20118;-82
2021/12/20 14:41:10;;;;;;;5.53;1.63;;;5.20;75.20;;;;;;4777289;30;20099;-83
2021/12/20 14:43:40;;;;;;;7.53;1.73;;;5.20;75.00;;;;;;4777033;30;20028;-82
2021/12/20 14:46:27;;;;;;;6.00;1.70;;;5.20;74.70;;;;;;4777652;30;20052;-83
2021/12/20 14:49:00;;;;;;;6.97;1.85;;;5.20;75.20;;;;;;4777937;30;20277;-82
2021/12/20 14:51:27;;;;;;;4.32;1.20;;;5.20;74.50;;;;;;4764791;30;20270;-83
2021/12/20 14:54:12;;;;;;;;;;;5.20;74.60;;;;;;4777140;29;20556;-83
2021/12/20 14:56:40;;;;;;;8.05;2.40;;;5.20;73.90;;;;;;4761060;30;19916;-82
2021/12/20 14:59:06;;;;;;;5.85;1.40;;;5.10;74.20;;;;;;4763637;30;20059;-82
2021/12/20 15:01:32;;;;;;;3.90;1.40;;;5.20;74.60;;;;;;4763450;30;20345;-83
2021/12/20 15:03:58;;;;;;;5.72;1.35;;;5.20;74.60;;;;;;4767086;30;20040;-83
2021/12/20 15:06:24;;;;;;;7.90;1.67;;;5.20;74.20;;;;;;4780398;30;20047;-83
2021/12/20 15:08:51;;;;;;;10.15;1.67;;;5.20;74.00;;;;;;4774605;30;20056;-83
2021/12/20 15:11:16;;;;;;;8.77;2.57;;;5.20;74.10;;;;;;4750884;30;20040;-82
2021/12/20 15:13:42;;;;;;;5.95;1.67;;;5.20;74.40;;;;;;4749581;30;20032;-82
2021/12/20 15:16:08;;;;;;;5.78;1.52;;;5.20;74.20;;;;;;4778136;30;20071;-82
2021/12/20 15:18:35;;;;;;;4.85;1.88;;;5.20;74.70;;;;;;4735008;30;20090;-82
2021/12/20 15:21:01;;;;;;;4.85;1.70;;;5.20;74.70;;;;;;4765017;30;20040;-83
2021/12/20 15:23:27;;;;;;;5.50;2.00;;;5.30;75.10;;;;;;4764950;30;20036;-83
2021/12/20 15:25:53;;;;;;;8.30;2.05;;;5.30;74.70;;;;;;4760269;30;20154;-83
2021/12/20 15:28:18;;;;;;;4.30;1.98;;;5.20;74.50;;;;;;4793742;30;20051;-82
2021/12/20 15:30:44;;;;;;;6.80;2.30;;;5.20;74.70;;;;;;4778383;30;20095;-83
2021/12/20 15:33:10;;;;;;;7.45;2.70;;;5.20;75.10;;;;;;4764239;30;20050;-83
2021/12/20 15:35:40;;;;;;;10.88;3.03;;;5.30;75.40;;;;;;4758137;30;20043;-82
2021/12/20 15:38:07;;;;;;;6.57;2.67;;;5.20;75.80;;;;;;4788985;30;20057;-83
2021/12/20 15:40:34;;;;;;;11.88;4.43;;;5.20;75.90;;;;;;4754554;30;20298;-82
2021/12/20 15:43:01;;;;;;;4.55;1.75;;;5.30;76.20;;;;;;4758802;30;20305;-82
2021/12/20 15:45:29;;;;;;;4.75;2.13;;;5.20;76.30;;;;;;4762387;30;20126;-82
2021/12/20 15:47:55;;;;;;;5.80;2.10;;;5.20;76.30;;;;;;4763089;30;20042;-82
2021/12/20 15:50:22;;;;;;;9.33;2.53;;;5.20;76.60;;;;;;4749061;30;20346;-82
2021/12/20 15:52:48;;;;;;;8.38;2.30;;;5.30;76.90;;;;;;4778374;30;20336;-82
2021/12/20 15:55:14;;;;;;;5.43;2.47;;;5.30;77.10;;;;;;4764939;30;20039;-83
2021/12/20 15:57:40;;;;;;;7.82;1.95;;;5.30;77.20;;;;;;4779723;30;20497;-83
2021/12/20 16:00:08;;;;;;;10.18;1.92;;;5.30;77.20;;;;;;4762195;30;20043;-82
2021/12/20 16:02:35;;;;;;;4.60;1.75;;;5.30;76.50;;;;;;4776887;30;20048;-82
2021/12/20 16:05:03;;;;;;;7.00;2.55;;;5.30;77.20;;;;;;4749661;30;20118;-82
2021/12/20 16:07:28;;;;;;;8.05;2.50;;;5.30;77.00;;;;;;4760865;30;20094;-83
2021/12/20 16:09:54;;;;;;;12.98;2.72;;;5.30;76.80;;;;;;4763215;30;20047;-83
2021/12/20 16:12:20;;;;;;;7.03;2.08;;;5.30;77.20;;;;;;4748156;30;20040;-82
2021/12/20 16:14:46;;;;;;;8.32;2.33;;;5.30;77.30;;;;;;4776060;30;20028;-82
2021/12/20 16:17:12;;;;;;;5.00;2.15;;;5.30;77.30;;;;;;4779084;30;20043;-82
2021/12/20 16:19:38;;;;;;;6.28;2.08;;;5.30;77.50;;;;;;4761457;30;20040;-82
2021/12/20 16:22:04;;;;;;;3.88;1.85;;;5.30;77.30;;;;;;4735378;30;20051;-83
2021/12/20 16:24:34;;;;;;;9.98;2.40;;;5.30;78.00;;;;;;4760793;30;20071;-83
2021/12/20 16:27:03;;;;;;;8.52;2.25;;;5.30;78.30;;;;;;4789131;30;20071;-83
2021/12/20 16:29:29;;;;;;;8.48;2.10;;;5.30;78.30;;;;;;4777325;30;20131;-83
2021/12/20 16:31:55;;;;;;;4.97;1.65;;;5.30;78.00;;;;;;4781424;30;20317;-83
2021/12/20 16:34:21;;;;;;;9.02;2.40;;;5.30;77.50;;;;;;4773874;30;20067;-83
2021/12/20 16:36:47;;;;;;;5.20;1.90;;;5.20;77.70;;;;;;4778293;30;20036;-83
2021/12/20 16:39:13;;;;;;;7.90;2.00;;;5.20;77.70;;;;;;4779094;30;20063;-83
2021/12/20 16:41:39;;;;;;;5.75;2.05;;;5.30;77.80;;;;;;4792206;29;20055;-83
2021/12/20 16:44:06;;;;;;;5.80;1.92;;;5.30;77.70;;;;;;4770795;30;20032;-83
2021/12/20 16:46:32;;;;;;;5.85;2.10;;;5.30;77.80;;;;;;4775419;30;20189;-83
2021/12/20 16:49:00;;;;;;;9.80;2.22;;;5.30;77.90;;;;;;4748871;30;20056;-82
2021/12/20 16:51:27;;;;;;;7.13;1.92;;;5.30;77.90;;;;;;4745733;30;20059;-83
2021/12/20 16:53:52;;;;;;;5.50;1.77;;;5.40;77.90;;;;;;4763982;30;20095;-83
2021/12/20 16:56:18;;;;;;;6.10;2.53;;;5.40;77.50;;;;;;4776741;30;20035;-83